Time;durP1;ratioP1;P1;durP2;ratioP2;P2;SDS_P1;SDS_P2;PMS_P1;PMS_P2;Temp;Humidity;BMP_temperature;BMP_pressure;BME280_temperature;BME280_humidity;BME280_pressure;Samples;Min_cycle;Max_cycle;Signal;HPM_P1;HPM_P2
2021/07/20 00:00:19;;;;;;;14.93;7.93;;;;;;;21.22;50.04;98122.47;8348070;28;20208;-64
2021/07/20 00:04:23;;;;;;;12.43;7.60;;;;;;;21.17;50.35;98128.16;8347971;28;20219;-64
2021/07/20 00:08:26;;;;;;;12.50;8.10;;;;;;;21.10;50.92;98137.53;8347445;28;20462;-65
2021/07/20 00:12:29;;;;;;;11.97;7.80;;;;;;;21.20;50.13;98142.84;8347841;28;20507;-64
2021/07/20 00:16:32;;;;;;;9.90;7.00;;;;;;;21.17;50.00;98145.72;8347796;28;20247;-64
2021/07/20 00:20:36;;;;;;;10.00;7.70;;;;;;;21.20;50.18;98142.84;8347725;28;20503;-63
2021/07/20 00:24:39;;;;;;;11.07;7.30;;;;;;;21.06;50.68;98138.75;8347272;28;20197;-64
2021/07/20 00:28:42;;;;;;;8.00;6.73;;;;;;;21.16;50.90;98146.72;8347405;28;20209;-64
2021/07/20 00:32:45;;;;;;;10.50;7.17;;;;;;;21.02;50.69;98138.19;8352166;28;20200;-64
2021/07/20 00:36:49;;;;;;;11.20;7.33;;;;;;;21.00;51.12;98134.84;8354045;28;20233;-64
2021/07/20 00:40:52;;;;;;;12.20;7.23;;;;;;;21.06;51.24;98142.22;8354003;28;20200;-64
2021/07/20 00:44:55;;;;;;;9.20;6.90;;;;;;;21.07;50.74;98148.31;8353902;28;20212;-64
2021/07/20 00:48:57;;;;;;;14.27;7.40;;;;;;;20.91;51.66;98140.88;8354026;28;20301;-64
2021/07/20 00:53:04;;;;;;;11.60;7.67;;;;;;;20.84;51.49;98140.53;8353743;28;20200;-64
2021/07/20 00:57:07;;;;;;;11.87;6.67;;;;;;;20.85;51.11;98139.59;8353792;28;20328;-64
2021/07/20 01:01:12;;;;;;;14.47;7.57;;;;;;;20.74;51.66;98144.09;8354276;28;20204;-65
2021/07/20 01:05:18;;;;;;;11.70;6.63;;;;;;;20.76;51.01;98131.66;8353932;28;21370;-64
2021/07/20 01:09:23;;;;;;;9.57;6.30;;;;;;;20.56;51.92;98134.09;8353296;28;20239;-65
2021/07/20 01:13:26;;;;;;;12.63;6.90;;;;;;;20.60;51.98;98132.91;8353163;28;20407;-64
2021/07/20 01:17:30;;;;;;;11.13;6.17;;;;;;;20.62;50.83;98125.72;8353005;28;20234;-65
2021/07/20 01:21:35;;;;;;;9.17;6.00;;;;;;;20.64;50.71;98136.13;8353072;28;20204;-64
2021/07/20 01:25:39;;;;;;;10.87;6.73;;;;;;;20.55;51.09;98134.22;8352768;28;20204;-64
2021/07/20 01:29:42;;;;;;;15.33;6.47;;;;;;;20.55;50.72;98132.44;8352853;28;20211;-64
2021/07/20 01:33:49;;;;;;;11.93;7.23;;;;;;;20.46;51.44;98126.13;8352479;28;20204;-64
2021/07/20 01:37:52;;;;;;;9.67;6.33;;;;;;;20.48;52.03;98128.63;8352651;28;20548;-64
2021/07/20 01:41:57;;;;;;;13.33;6.67;;;;;;;20.41;51.84;98136.19;8352024;28;20201;-64
2021/07/20 01:46:00;;;;;;;11.87;6.70;;;;;;;20.45;51.58;98131.53;8352379;28;20200;-64
2021/07/20 01:50:05;;;;;;;10.60;6.17;;;;;;;20.40;51.66;98129.25;8352088;28;20393;-64
2021/07/20 01:54:09;;;;;;;12.07;6.53;;;;;;;20.27;51.93;98133.84;8352174;28;20495;-64
2021/07/20 01:58:13;;;;;;;11.70;6.47;;;;;;;20.21;51.86;98132.56;8351788;28;20258;-64
2021/07/20 02:02:27;;;;;;;10.17;6.53;;;;;;;20.01;52.44;98138.59;8351766;28;20216;-64
2021/07/20 02:10:51;;;;;;;9.97;6.20;;;;;;;19.86;52.21;98138.03;8351647;28;20221;-64
2021/07/20 02:14:57;;;;;;;9.53;6.07;;;;;;;19.89;52.30;98143.84;8351196;28;20207;-64
2021/07/20 02:19:04;;;;;;;9.33;6.20;;;;;;;19.84;52.61;98138.16;8351017;28;20228;-64
2021/07/20 02:23:08;;;;;;;17.00;6.40;;;;;;;19.84;52.36;98137.34;8351240;28;20504;-64
2021/07/20 02:27:13;;;;;;;12.07;6.27;;;;;;;19.71;52.32;98137.44;8350964;28;20205;-64
2021/07/20 02:31:20;;;;;;;13.73;6.47;;;;;;;19.70;52.56;98143.63;8350715;28;20441;-63
2021/07/20 02:35:25;;;;;;;13.47;6.30;;;;;;;19.67;53.31;98143.88;8350182;28;20263;-63
2021/07/20 02:39:29;;;;;;;11.40;6.00;;;;;;;19.65;53.11;98132.66;8350450;28;20484;-64
2021/07/20 02:43:33;;;;;;;14.43;6.70;;;;;;;19.64;53.41;98134.44;8349863;28;20475;-64
2021/07/20 02:47:37;;;;;;;10.77;5.60;;;;;;;19.64;53.41;98137.06;8350195;28;20211;-64
2021/07/20 02:51:41;;;;;;;15.27;6.43;;;;;;;19.63;53.08;98130.16;8350006;28;20200;-64
2021/07/20 02:55:44;;;;;;;11.57;6.07;;;;;;;19.64;52.27;98134.44;8348887;28;20200;-64
2021/07/20 02:59:48;;;;;;;10.70;5.87;;;;;;;19.64;52.81;98131.81;8349621;28;20524;-64
2021/07/20 03:03:52;;;;;;;10.87;5.80;;;;;;;19.77;51.99;98136.13;8349386;28;20206;-64
2021/07/20 03:07:58;;;;;;;14.73;6.40;;;;;;;19.64;52.83;98134.44;8348978;28;20245;-64
2021/07/20 03:12:03;;;;;;;12.30;5.90;;;;;;;19.71;52.71;98143.50;8349384;28;20226;-64
2021/07/20 03:16:08;;;;;;;10.90;5.77;;;;;;;19.66;53.04;98140.41;8349317;28;20200;-64
2021/07/20 03:20:15;;;;;;;13.13;6.80;;;;;;;19.66;53.12;98137.78;8348695;28;20228;-64
2021/07/20 03:24:18;;;;;;;8.90;6.30;;;;;;;19.53;53.68;98135.31;8348793;28;20200;-64
2021/07/20 03:28:21;;;;;;;13.83;6.40;;;;;;;19.39;53.73;98138.16;8348733;28;20211;-64
2021/07/20 03:32:25;;;;;;;12.20;6.83;;;;;;;19.42;53.64;98131.81;8348658;28;20368;-64
2021/07/20 03:36:30;;;;;;;12.50;6.83;;;;;;;19.37;53.87;98139.25;8348713;28;20310;-64
2021/07/20 03:40:34;;;;;;;12.20;7.17;;;;;;;19.42;54.05;98140.56;8348674;28;20231;-64
2021/07/20 03:44:37;;;;;;;12.97;6.87;;;;;;;19.49;54.07;98140.91;8348761;28;20383;-64
2021/07/20 03:48:42;;;;;;;12.40;6.57;;;;;;;19.32;53.92;98124.69;8348522;28;20311;-64
2021/07/20 03:52:46;;;;;;;12.00;6.77;;;;;;;19.39;53.92;98130.28;8348252;28;20212;-64
2021/07/20 03:56:50;;;;;;;13.17;6.50;;;;;;;19.40;54.35;98133.72;8348247;28;20204;-63
2021/07/20 04:00:55;;;;;;;14.20;6.90;;;;;;;19.39;54.40;98138.16;8347816;28;20546;-64
2021/07/20 04:04:59;;;;;;;14.47;6.70;;;;;;;19.45;54.12;98136.84;8347700;28;20207;-64
2021/07/20 04:09:03;;;;;;;12.87;6.70;;;;;;;19.42;54.07;98137.94;8347620;28;20248;-64
2021/07/20 04:13:06;;;;;;;11.87;6.70;;;;;;;19.39;54.12;98140.78;8347667;28;20268;-64
2021/07/20 04:17:09;;;;;;;11.57;6.23;;;;;;;19.38;54.32;98143.50;8347546;28;20207;-64
2021/07/20 04:21:13;;;;;;;12.90;6.30;;;;;;;19.44;54.01;98149.16;8347510;28;20200;-64
2021/07/20 04:25:17;;;;;;;13.53;6.60;;;;;;;19.54;54.31;98154.50;8347477;28;20204;-64
2021/07/20 04:29:20;;;;;;;9.03;6.40;;;;;;;19.65;53.95;98159.75;8347605;28;20208;-64
2021/07/20 04:33:25;;;;;;;13.83;6.40;;;;;;;19.65;54.19;98157.13;8347156;28;20223;-64
2021/07/20 04:37:29;;;;;;;9.67;5.90;;;;;;;19.63;53.92;98158.19;8346648;28;20200;-64
2021/07/20 04:41:33;;;;;;;10.03;6.10;;;;;;;19.73;53.76;98159.19;8346922;28;20400;-64
2021/07/20 04:45:36;;;;;;;11.57;5.77;;;;;;;19.86;54.03;98162.50;8346678;28;20201;-64
2021/07/20 04:49:41;;;;;;;9.53;5.53;;;;;;;19.75;54.26;98162.53;8346196;28;20227;-64
2021/07/20 04:53:44;;;;;;;10.27;5.80;;;;;;;19.80;54.34;98170.03;8346101;28;20306;-63
2021/07/20 04:57:48;;;;;;;9.30;6.20;;;;;;;19.72;54.54;98170.63;8346753;28;20234;-63
2021/07/20 05:01:51;;;;;;;10.87;6.60;;;;;;;19.82;53.84;98173.38;8346127;28;20226;-63
2021/07/20 05:05:57;;;;;;;9.87;6.10;;;;;;;19.83;54.15;98177.69;8345558;28;20197;-63
2021/07/20 05:10:01;;;;;;;14.13;5.93;;;;;;;19.86;54.23;98180.09;8359173;28;20287;-63
2021/07/20 05:14:05;;;;;;;11.50;5.93;;;;;;;19.98;53.76;98180.91;8378289;28;20203;-64
2021/07/20 05:18:08;;;;;;;11.17;6.07;;;;;;;20.03;53.79;98189.22;8381611;28;20222;-63
2021/07/20 05:22:14;;;;;;;11.87;6.03;;;;;;;19.97;53.43;98185.31;8384649;28;20192;-63
2021/07/20 05:26:17;;;;;;;13.17;6.30;;;;;;;20.17;53.39;98186.34;8384786;28;20200;-63
2021/07/20 05:30:22;;;;;;;11.70;6.10;;;;;;;20.12;53.27;98180.63;8385170;28;20200;-63
2021/07/20 05:34:25;;;;;;;12.20;6.60;;;;;;;20.28;52.68;98182.88;8385642;28;20224;-63
2021/07/20 05:38:29;;;;;;;10.83;6.30;;;;;;;20.11;51.19;98185.03;8385287;28;20231;-63
2021/07/20 05:42:32;;;;;;;11.83;5.77;;;;;;;19.88;51.92;98184.25;8385263;28;20204;-63
2021/07/20 05:46:37;;;;;;;11.10;5.60;;;;;;;20.11;51.79;98190.31;8384512;28;20206;-63
2021/07/20 05:50:47;;;;;;;12.87;6.07;;;;;;;20.39;52.52;98198.63;8384604;28;20384;-63
2021/07/20 05:54:50;;;;;;;11.63;6.03;;;;;;;20.47;52.08;98201.44;8384326;28;20200;-63
2021/07/20 05:58:53;;;;;;;8.33;5.90;;;;;;;21.00;59.22;98200.66;8384669;28;20227;-66
2021/07/20 06:02:58;;;;;;;18.77;6.30;;;;;;;20.80;51.96;98197.03;8384847;28;20213;-66
2021/07/20 06:07:03;;;;;;;12.30;5.70;;;;;;;21.09;50.98;98194.63;8384140;28;20242;-66
2021/07/20 06:11:07;;;;;;;15.60;5.83;;;;;;;21.14;49.83;98196.88;8384368;28;20286;-66
2021/07/20 06:15:10;;;;;;;14.03;6.03;;;;;;;21.26;49.37;98189.72;8384234;28;20251;-66
2021/07/20 06:19:14;;;;;;;13.23;6.07;;;;;;;21.76;50.01;98194.28;8383886;28;20235;-65
2021/07/20 06:23:19;;;;;;;17.00;5.83;;;;;;;21.69;48.29;98190.53;8384021;28;20204;-65
2021/07/20 06:27:22;;;;;;;10.07;5.40;;;;;;;22.16;50.23;98198.69;8383208;28;20398;-65
2021/07/20 06:31:25;;;;;;;10.17;5.23;;;;;;;22.17;47.58;98203.00;8383023;28;20207;-66
2021/07/20 06:35:30;;;;;;;10.23;5.53;;;;;;;21.54;48.16;98203.22;8383535;28;20199;-66
2021/07/20 06:39:33;;;;;;;11.60;5.60;;;;;;;21.97;49.36;98200.34;8383197;28;20227;-66
2021/07/20 06:43:36;;;;;;;16.00;5.47;;;;;;;22.25;48.34;98211.94;8383238;28;20205;-65
2021/07/20 06:47:41;;;;;;;13.83;5.67;;;;;;;21.90;47.43;98214.19;8382786;28;20220;-65
2021/07/20 06:51:45;;;;;;;13.60;5.87;;;;;;;22.24;47.22;98219.97;8383341;28;20206;-65
2021/07/20 06:55:50;;;;;;;9.60;5.20;;;;;;;22.76;47.88;98214.50;8356545;28;20198;-65
2021/07/20 06:59:54;;;;;;;12.33;5.40;;;;;;;22.87;45.81;98221.44;8349179;28;20228;-65
2021/07/20 07:04:01;;;;;;;10.00;4.90;;;;;;;23.09;45.85;98223.81;8349166;28;20211;-65
2021/07/20 07:08:06;;;;;;;13.73;5.03;;;;;;;23.11;46.88;98215.75;8348438;28;20236;-65
2021/07/20 07:12:10;;;;;;;10.80;5.07;;;;;;;23.24;44.90;98229.47;8348233;28;20201;-66
2021/07/20 07:16:13;;;;;;;11.10;4.70;;;;;;;23.58;46.18;98229.00;8347941;28;20204;-65
2021/07/20 07:20:20;;;;;;;12.60;4.90;;;;;;;23.31;45.72;98224.47;8347248;28;20257;-66
2021/07/20 07:24:24;;;;;;;10.43;5.07;;;;;;;23.74;45.35;98236.31;8346277;28;20207;-65
2021/07/20 07:28:28;;;;;;;9.60;5.33;;;;;;;23.84;42.99;98229.22;8347087;28;20493;-66
2021/07/20 07:32:31;;;;;;;12.17;6.07;;;;;;;23.73;42.34;98229.38;8347488;28;20211;-65
2021/07/20 07:36:33;;;;;;;11.43;5.50;;;;;;;23.74;41.27;98231.00;8347455;28;20200;-66
2021/07/20 07:40:38;;;;;;;11.33;5.83;;;;;;;24.16;40.64;98233.22;8369449;28;20416;-66
2021/07/20 07:44:42;;;;;;;11.40;5.70;;;;;;;24.47;40.59;98230.28;8381828;28;20382;-66
2021/07/20 07:48:45;;;;;;;14.63;6.03;;;;;;;24.71;40.37;98232.34;8381510;28;20203;-66
2021/07/20 07:52:48;;;;;;;9.50;5.50;;;;;;;24.64;39.90;98228.66;8381951;28;20211;-66
2021/07/20 07:56:57;;;;;;;7.47;5.40;;;;;;;24.49;40.36;98231.78;8381767;28;20531;-65
2021/07/20 08:01:01;;;;;;;11.73;5.60;;;;;;;24.25;40.69;98228.88;8381355;28;20227;-67
2021/07/20 08:05:08;;;;;;;10.40;5.43;;;;;;;24.59;41.20;98229.09;8381202;28;20269;-67
2021/07/20 08:09:13;;;;;;;9.07;5.50;;;;;;;24.94;40.03;98220.31;8381535;28;20250;-67
2021/07/20 08:13:18;;;;;;;13.30;5.70;;;;;;;25.55;37.14;98223.91;8381202;28;20200;-67
2021/07/20 08:17:21;;;;;;;13.70;4.60;;;;;;;26.12;37.14;98223.38;8366284;28;20498;-67
2021/07/20 08:21:27;;;;;;;12.40;5.10;;;;;;;25.47;36.42;98225.66;8347860;28;20226;-67
2021/07/20 08:25:33;;;;;;;8.50;5.03;;;;;;;25.52;37.38;98228.69;8348281;28;20226;-67
2021/07/20 08:29:39;;;;;;;11.27;6.03;;;;;;;25.07;36.83;98227.00;8347918;28;20444;-66
2021/07/20 08:33:44;;;;;;;11.40;5.03;;;;;;;25.10;37.82;98229.38;8348178;28;20514;-66
2021/07/20 08:37:48;;;;;;;10.30;5.33;;;;;;;24.69;37.96;98234.31;8346858;28;20205;-66
2021/07/20 08:42:05;;;;;;;12.93;5.33;;;;;;;24.94;37.50;98227.41;8347481;28;20339;-68
2021/07/20 08:46:17;;;;;;;10.80;4.67;;;;;;;26.22;35.35;98222.41;8347515;28;20207;-70
2021/07/20 08:50:26;;;;;;;17.43;5.23;;;;;;;26.95;33.93;98223.53;8347162;28;20514;-70
2021/07/20 08:54:30;;;;;;;13.87;4.27;;;;;;;26.86;34.78;98220.88;8353046;28;20237;-70
2021/07/20 08:58:35;;;;;;;8.27;4.53;;;;;;;26.40;35.22;98223.09;8352744;28;20205;-70
2021/07/20 09:02:48;;;;;;;14.83;5.07;;;;;;;26.37;35.66;98219.94;8354083;28;20417;-69
2021/07/20 09:06:55;;;;;;;13.20;5.03;;;;;;;26.97;33.64;98222.38;8354343;28;20244;-70
2021/07/20 09:11:06;;;;;;;14.60;4.83;;;;;;;27.35;33.96;98221.88;8353888;28;20274;-70
2021/07/20 09:15:12;;;;;;;9.23;4.80;;;;;;;27.45;32.68;98218.03;8353957;28;20204;-68
2021/07/20 09:19:23;;;;;;;11.17;4.53;;;;;;;27.96;33.66;98222.25;8353309;28;20223;-69
2021/07/20 09:23:29;;;;;;;15.53;6.00;;;;;;;27.11;33.43;98224.38;8353624;28;20214;-69
2021/07/20 09:27:37;;;;;;;11.43;5.03;;;;;;;27.71;32.23;98222.28;8353260;28;20209;-70
2021/07/20 09:32:00;;;;;;;15.63;5.73;;;;;;;26.83;33.72;98218.56;8352880;28;20206;-69
2021/07/20 09:36:12;;;;;;;16.63;6.00;;;;;;;27.48;32.62;98222.19;8352314;28;20212;-69
2021/07/20 09:40:32;;;;;;;11.57;4.93;;;;;;;27.73;32.55;98224.78;8351799;28;20227;-70
2021/07/20 09:44:43;;;;;;;10.97;5.70;;;;;;;28.25;32.69;98221.59;8351900;28;20204;-69
2021/07/20 09:48:51;;;;;;;11.43;5.50;;;;;;;28.31;31.40;98220.91;8351076;28;20249;-70
2021/07/20 09:53:19;;;;;;;9.30;5.47;;;;;;;28.39;30.63;98220.84;8351278;28;20211;-74
2021/07/20 09:57:34;;;;;;;10.60;5.57;;;;;;;28.75;32.00;98217.66;8350211;28;20213;-69
2021/07/20 10:01:40;;;;;;;8.87;5.30;;;;;;;27.75;33.27;98215.63;8350987;28;20231;-69
2021/07/20 10:05:50;;;;;;;7.40;5.30;;;;;;;27.05;34.20;98221.53;8350055;28;20209;-83
2021/07/20 10:09:55;;;;;;;10.27;5.67;;;;;;;26.57;35.25;98210.69;8351686;28;20241;-70
2021/07/20 10:14:17;;;;;;;25.07;6.93;;;;;;;27.29;33.01;98205.59;8347982;28;20196;-69
2021/07/20 10:18:23;;;;;;;11.07;6.50;;;;;;;27.40;31.18;98203.59;8347386;28;20277;-69
2021/07/20 10:22:30;;;;;;;9.93;6.00;;;;;;;27.06;33.73;98201.94;8350706;28;20226;-69
2021/07/20 10:26:40;;;;;;;11.47;5.53;;;;;;;28.10;33.09;98192.22;8350940;28;20208;-69
2021/07/20 10:30:49;;;;;;;13.13;6.33;;;;;;;27.63;33.78;98199.22;8350947;28;20382;-69
2021/07/20 10:34:56;;;;;;;9.73;5.17;;;;;;;26.96;33.81;98199.47;8350864;28;20228;-70
2021/07/20 10:39:04;;;;;;;10.60;5.97;;;;;;;26.95;33.90;98205.78;8350370;28;20203;-69
2021/07/20 10:43:14;;;;;;;7.97;5.70;;;;;;;27.97;31.02;98199.94;8350334;28;20382;-69
2021/07/20 10:47:19;;;;;;;11.03;6.00;;;;;;;27.46;30.97;98195.75;8349937;28;20208;-69
2021/07/20 10:51:24;;;;;;;9.23;5.47;;;;;;;27.72;31.99;98197.38;8349766;28;20216;-70
2021/07/20 10:55:34;;;;;;;8.47;5.83;;;;;;;27.54;32.37;98188.78;8349717;28;20198;-76
2021/07/20 10:59:49;;;;;;;7.27;5.40;;;;;;;28.67;30.96;98191.06;8349432;28;20202;-62
2021/07/20 11:04:05;;;;;;;8.97;5.77;;;;;;;27.64;32.39;98189.38;8349639;28;20204;-65
2021/07/20 11:08:08;;;;;;;10.63;6.03;;;;;;;27.00;32.99;98194.66;8369374;28;20246;-65
2021/07/20 11:12:11;;;;;;;8.73;6.03;;;;;;;26.79;33.68;98198.63;8382207;28;20584;-66
2021/07/20 11:16:16;;;;;;;11.37;6.27;;;;;;;26.47;33.14;98196.75;8381351;28;20218;-65
2021/07/20 11:20:21;;;;;;;10.60;5.90;;;;;;;28.03;33.07;98196.59;8381674;28;20522;-65
2021/07/20 11:24:25;;;;;;;9.77;6.20;;;;;;;28.31;29.95;98190.78;8382147;28;20476;-65
2021/07/20 11:28:29;;;;;;;9.07;6.13;;;;;;;28.41;30.28;98194.06;8361943;28;20207;-78
2021/07/20 11:32:33;;;;;;;8.20;6.13;;;;;;;28.21;30.77;98188.34;8348064;28;20206;-65
2021/07/20 11:36:39;;;;;;;8.80;6.20;;;;;;;28.65;30.73;98185.94;8348387;28;20195;-66
2021/07/20 11:40:47;;;;;;;13.73;5.90;;;;;;;29.04;30.58;98179.59;8347990;28;20225;-65
2021/07/20 11:44:52;;;;;;;8.97;6.07;;;;;;;28.00;32.39;98186.28;8348200;28;20202;-66
2021/07/20 11:49:02;;;;;;;8.63;5.80;;;;;;;27.46;32.76;98181.66;8348100;28;20202;-66
2021/07/20 11:53:13;;;;;;;8.10;5.90;;;;;;;27.04;33.58;98186.16;8346833;28;20406;-65
2021/07/20 11:58:00;;;;;;;11.33;6.43;;;;;;;27.36;33.58;98180.97;8345672;28;20488;-66
2021/07/20 12:02:43;;;;;;;10.23;6.00;;;;;;;26.81;33.52;98178.03;8346045;28;20231;-66
2021/07/20 12:07:06;;;;;;;12.13;6.57;;;;;;;26.66;33.17;98185.03;8346754;28;20254;-66
2021/07/20 12:11:15;;;;;;;7.30;5.90;;;;;;;28.05;32.12;98174.13;8348181;28;20396;-67
2021/07/20 12:15:19;;;;;;;8.97;6.37;;;;;;;28.31;29.21;98170.31;8348030;28;20502;-66
2021/07/20 12:19:30;;;;;;;8.97;5.90;;;;;;;27.35;32.37;98174.84;8347824;28;20204;-66
2021/07/20 12:23:34;;;;;;;10.97;6.30;;;;;;;28.52;31.19;98169.72;8347813;28;20414;-66
2021/07/20 12:27:37;;;;;;;6.80;5.90;;;;;;;28.43;31.43;98171.56;8347718;28;20262;-66
2021/07/20 12:31:40;;;;;;;9.17;5.90;;;;;;;27.42;32.85;98172.34;8347779;28;20210;-66
2021/07/20 12:35:49;;;;;;;8.50;6.07;;;;;;;28.24;31.77;98164.84;8347704;28;20200;-68
2021/07/20 12:39:56;;;;;;;10.23;6.10;;;;;;;27.56;32.54;98163.66;8347796;28;20607;-66
2021/07/20 12:43:59;;;;;;;8.20;6.03;;;;;;;27.64;31.38;98147.66;8347368;28;20416;-66
2021/07/20 12:48:04;;;;;;;9.80;6.20;;;;;;;28.27;31.60;98155.69;8346440;28;20208;-67
2021/07/20 12:52:07;;;;;;;12.47;6.83;;;;;;;28.47;30.97;98154.22;8346508;28;20197;-72
2021/07/20 12:56:13;;;;;;;13.30;6.70;;;;;;;28.31;31.15;98151.69;8346666;28;20202;-71
2021/07/20 13:00:21;;;;;;;9.20;6.83;;;;;;;27.49;32.07;98152.03;8347041;28;20199;-72
2021/07/20 13:04:25;;;;;;;9.93;6.40;;;;;;;27.87;31.33;98153.06;8346962;28;20301;-72
2021/07/20 13:08:27;;;;;;;9.20;6.70;;;;;;;28.38;30.45;98149.94;8346628;28;20239;-71
2021/07/20 13:12:32;;;;;;;10.80;6.67;;;;;;;28.13;29.09;98149.28;8347137;28;20258;-71
2021/07/20 13:16:35;;;;;;;10.93;6.97;;;;;;;27.86;30.12;98146.06;8346868;28;20216;-75
2021/07/20 13:20:38;;;;;;;11.90;6.30;;;;;;;28.36;29.37;98141.31;8347347;28;20284;-69
2021/07/20 13:24:41;;;;;;;11.93;6.77;;;;;;;28.33;31.05;98139.03;8347000;28;20202;-70
2021/07/20 13:28:45;;;;;;;11.17;6.90;;;;;;;28.38;31.03;98147.28;8346354;28;20345;-70
2021/07/20 13:32:49;;;;;;;10.63;6.80;;;;;;;28.63;32.01;98147.13;8346781;28;20412;-72
2021/07/20 13:36:52;;;;;;;10.47;6.50;;;;;;;28.12;31.86;98147.63;8346812;28;20357;-71
2021/07/20 13:40:55;;;;;;;20.57;6.87;;;;;;;27.19;32.93;98146.44;8352291;28;20233;-73
2021/07/20 13:45:01;;;;;;;9.90;6.23;;;;;;;27.80;32.56;98149.44;8352399;28;20479;-70
2021/07/20 13:49:05;;;;;;;11.37;6.37;;;;;;;28.47;31.82;98150.72;8352150;28;20272;-64
2021/07/20 13:53:09;;;;;;;15.00;6.87;;;;;;;28.71;30.97;98148.91;8352291;28;20207;-64
2021/07/20 13:57:12;;;;;;;8.93;6.87;;;;;;;28.82;31.72;98143.97;8351718;28;20209;-65
2021/07/20 14:01:18;;;;;;;9.93;6.53;;;;;;;28.79;30.19;98141.69;8352091;28;20235;-65
2021/07/20 14:05:21;;;;;;;11.70;6.20;;;;;;;27.94;32.00;98137.25;8352238;28;20426;-65
2021/07/20 14:09:25;;;;;;;7.47;6.30;;;;;;;27.57;32.83;98148.50;8350378;28;20243;-67
2021/07/20 14:13:28;;;;;;;9.97;6.47;;;;;;;27.97;31.10;98134.25;8351634;28;20268;-67
2021/07/20 14:17:33;;;;;;;8.77;6.13;;;;;;;28.43;31.95;98134.28;8351602;28;20417;-67
2021/07/20 14:21:37;;;;;;;7.27;5.80;;;;;;;28.71;31.79;98139.09;8351649;28;20230;-68
2021/07/20 14:25:46;;;;;;;10.90;7.10;;;;;;;28.17;31.35;98139.13;8351392;28;20198;-68
2021/07/20 14:29:49;;;;;;;9.53;6.80;;;;;;;28.30;32.47;98139.34;8351251;28;20208;-68
2021/07/20 14:33:53;;;;;;;7.73;6.20;;;;;;;28.66;31.40;98136.13;8351179;28;20387;-68
2021/07/20 14:37:56;;;;;;;8.80;6.70;;;;;;;28.70;30.04;98137.41;8351218;28;20211;-67
2021/07/20 14:42:11;;;;;;;8.90;5.97;;;;;;;28.81;30.19;98133.50;8350762;28;20534;-67
2021/07/20 14:46:16;;;;;;;9.30;6.20;;;;;;;28.69;30.99;98137.59;8318115;28;20294;-67
2021/07/20 14:50:22;;;;;;;10.63;6.97;;;;;;;28.77;30.50;98134.84;8316897;28;20203;-68
2021/07/20 14:54:26;;;;;;;10.47;6.67;;;;;;;28.45;30.24;98126.13;8329212;28;20204;-68
2021/07/20 14:58:30;;;;;;;16.90;7.17;;;;;;;28.37;29.92;98134.13;8356362;28;20483;-67
2021/07/20 15:02:36;;;;;;;10.13;7.00;;;;;;;28.42;29.57;98131.78;8349302;28;20229;-67
2021/07/20 15:06:42;;;;;;;13.63;7.27;;;;;;;28.20;30.72;98117.47;8349984;28;20234;-71
2021/07/20 15:10:45;;;;;;;12.30;7.00;;;;;;;27.95;31.13;98135.41;8349449;28;20254;-72
2021/07/20 15:14:47;;;;;;;9.93;7.20;;;;;;;27.45;31.18;98140.91;8349320;28;20206;-70
2021/07/20 15:19:05;;;;;;;10.13;6.97;;;;;;;27.83;30.53;98125.13;8348840;28;20380;-77
2021/07/20 15:23:11;;;;;;;9.87;6.47;;;;;;;27.87;30.82;98125.59;8348997;28;20231;-71
2021/07/20 15:27:16;;;;;;;8.53;6.70;;;;;;;27.96;30.71;98129.91;8348860;28;20201;-69
2021/07/20 15:31:19;;;;;;;25.73;7.73;;;;;;;27.94;30.70;98129.25;8349280;28;20396;-71
2021/07/20 15:35:23;;;;;;;8.53;7.20;;;;;;;27.85;30.82;98141.75;8349236;28;20362;-72
2021/07/20 15:39:27;;;;;;;10.70;7.80;;;;;;;27.63;30.42;98143.34;8348825;28;20496;-71
2021/07/20 15:43:30;;;;;;;8.83;6.80;;;;;;;27.74;31.65;98138.63;8348795;28;20231;-70
2021/07/20 15:47:33;;;;;;;8.57;7.13;;;;;;;27.78;31.04;98134.63;8373355;28;20195;-70
2021/07/20 15:51:36;;;;;;;8.83;7.30;;;;;;;27.61;30.61;98139.22;8381816;28;20498;-71
2021/07/20 15:55:41;;;;;;;9.50;7.13;;;;;;;27.65;30.59;98135.19;8364477;28;20401;-71
2021/07/20 15:59:44;;;;;;;9.17;7.40;;;;;;;27.39;29.99;98138.94;8347892;28;20206;-70
2021/07/20 16:03:47;;;;;;;12.70;7.40;;;;;;;27.28;30.73;98136.63;8347270;28;20228;-66
2021/07/20 16:07:51;;;;;;;8.90;7.33;;;;;;;27.11;31.42;98146.44;8343034;28;20236;-66
2021/07/20 16:11:55;;;;;;;10.27;8.20;;;;;;;27.22;30.82;98139.94;8347882;28;20204;-65
2021/07/20 16:15:58;;;;;;;10.43;7.60;;;;;;;27.15;32.39;98147.78;8347730;28;20200;-66
2021/07/20 16:20:00;;;;;;;9.37;7.23;;;;;;;27.31;31.47;98144.28;8347682;28;20228;-66
2021/07/20 16:24:07;;;;;;;12.60;10.00;;;;;;;27.19;31.54;98138.47;8347010;28;20227;-66
2021/07/20 16:28:13;;;;;;;16.40;8.67;;;;;;;27.03;32.25;98141.16;8347085;28;20287;-66
2021/07/20 16:32:16;;;;;;;13.80;8.20;;;;;;;26.74;32.20;98144.34;8347058;28;20287;-66
2021/07/20 16:36:22;;;;;;;13.30;11.10;;;;;;;26.67;32.14;98144.16;8347437;28;20225;-66
2021/07/20 16:40:27;;;;;;;16.37;8.23;;;;;;;26.30;32.88;98148.09;8346946;28;20204;-66
2021/07/20 16:44:34;;;;;;;8.43;7.60;;;;;;;26.24;32.64;98143.47;8346973;28;20245;-66
2021/07/20 16:48:39;;;;;;;14.30;8.57;;;;;;;26.11;35.20;98146.56;8346438;28;20203;-67
2021/07/20 16:52:43;;;;;;;11.50;8.57;;;;;;;26.36;35.76;98154.59;8345816;28;20394;-66
2021/07/20 16:56:46;;;;;;;10.27;7.63;;;;;;;26.29;34.59;98149.94;8346422;28;20208;-67
2021/07/20 17:00:51;;;;;;;11.30;7.73;;;;;;;26.30;34.55;98150.75;8346405;28;20484;-65
2021/07/20 17:04:57;;;;;;;8.97;8.00;;;;;;;26.16;34.00;98149.56;8346746;28;20306;-65
2021/07/20 17:09:01;;;;;;;19.77;7.47;;;;;;;26.17;34.35;98147.75;8345875;28;20236;-65
2021/07/20 17:13:05;;;;;;;9.17;7.43;;;;;;;26.06;34.37;98144.38;8347765;28;20199;-65
2021/07/20 17:17:10;;;;;;;11.00;8.07;;;;;;;25.94;34.11;98149.16;8352010;28;20192;-64
2021/07/20 17:21:14;;;;;;;14.00;7.77;;;;;;;25.84;34.52;98151.09;8351790;28;20226;-64
2021/07/20 17:25:20;;;;;;;10.97;7.63;;;;;;;25.78;34.42;98157.06;8351836;28;20235;-65
2021/07/20 17:29:24;;;;;;;10.63;7.50;;;;;;;25.66;34.83;98153.84;8351836;28;20220;-65
2021/07/20 17:33:33;;;;;;;14.70;7.70;;;;;;;25.60;34.88;98156.31;8351817;28;20207;-65
2021/07/20 17:37:37;;;;;;;12.30;8.03;;;;;;;25.59;34.16;98154.63;8352613;28;20271;-65
2021/07/20 17:45:58;;;;;;;11.00;7.90;;;;;;;25.38;34.38;98160.34;8350952;28;20211;-65
2021/07/20 17:50:06;;;;;;;9.33;7.70;;;;;;;25.38;34.74;98166.50;8351212;28;20265;-70
2021/07/20 17:54:14;;;;;;;9.60;7.50;;;;;;;25.33;34.79;98166.94;8349508;28;20217;-65
2021/07/20 17:58:17;;;;;;;15.03;8.13;;;;;;;25.25;35.61;98171.38;8351586;28;20214;-65
2021/07/20 18:02:19;;;;;;;9.87;7.03;;;;;;;25.24;35.83;98175.00;8351340;28;20384;-65
2021/07/20 18:06:25;;;;;;;8.80;7.20;;;;;;;25.19;35.46;98172.81;8351335;28;20242;-65
2021/07/20 18:10:27;;;;;;;8.60;7.80;;;;;;;25.12;36.05;98175.22;8351443;28;20243;-65
2021/07/20 18:14:30;;;;;;;10.70;7.80;;;;;;;25.07;36.49;98182.81;8351291;28;20370;-65
2021/07/20 18:18:33;;;;;;;10.17;7.87;;;;;;;25.01;35.99;98185.25;8351073;28;20205;-65
2021/07/20 18:22:37;;;;;;;10.10;7.83;;;;;;;25.00;36.50;98192.38;8351238;28;20228;-64
2021/07/20 18:26:40;;;;;;;9.57;7.23;;;;;;;24.95;36.55;98186.69;8350635;28;20205;-65
2021/07/20 18:30:43;;;;;;;10.80;8.23;;;;;;;24.87;36.82;98186.66;8351067;28;20202;-65
2021/07/20 18:34:46;;;;;;;9.20;7.70;;;;;;;24.86;37.37;98190.25;8350698;28;20219;-65
2021/07/20 18:38:50;;;;;;;10.00;7.67;;;;;;;24.78;37.96;98188.38;8350662;28;20207;-65
2021/07/20 18:42:53;;;;;;;10.30;7.97;;;;;;;24.58;38.81;98193.03;8350467;28;20520;-66
2021/07/20 18:46:55;;;;;;;13.97;7.30;;;;;;;24.57;38.64;98194.00;8350979;28;20200;-66
2021/07/20 18:50:58;;;;;;;12.40;8.83;;;;;;;24.50;39.30;98195.53;8351007;28;20207;-65
2021/07/20 18:55:03;;;;;;;9.73;8.27;;;;;;;24.44;39.98;98207.56;8350547;28;20215;-64
2021/07/20 18:59:06;;;;;;;14.77;8.27;;;;;;;24.41;40.18;98202.59;8349883;28;20205;-65
2021/07/20 19:03:09;;;;;;;10.60;8.10;;;;;;;24.28;40.37;98213.53;8349696;28;20319;-65
2021/07/20 19:07:12;;;;;;;10.77;7.80;;;;;;;24.22;41.57;98211.47;8349580;28;20262;-65
2021/07/20 19:11:17;;;;;;;10.30;8.43;;;;;;;24.08;42.02;98210.16;8350064;28;20219;-65